Time;durP1;ratioP1;P1;durP2;ratioP2;P2;SDS_P1;SDS_P2;PMS_P1;PMS_P2;Temp;Humidity;BMP_temperature;BMP_pressure;BME280_temperature;BME280_humidity;BME280_pressure;Samples;Min_cycle;Max_cycle;Signal;HPM_P1;HPM_P2
2021/12/16 00:01:52;;;;;;;35.22;17.92;;;;;;;;;;5032974;28;20477;-66
2021/12/16 00:05:05;;;;;;;34.10;17.48;;;;;;;;;;5032588;28;20037;-66
2021/12/16 00:10:22;;;;;;;36.72;17.65;;;;;;;;;;5010445;28;20161;-66
2021/12/16 00:31:56;;;;;;;37.78;18.88;;;;;;;;;;5028055;28;20091;-66
2021/12/16 00:34:24;;;;;;;37.15;18.80;;;;;;;;;;5032173;28;20249;-66
2021/12/16 00:36:50;;;;;;;40.72;19.52;;;;;;;;;;5031376;28;20099;-66
2021/12/16 00:39:21;;;;;;;35.72;19.27;;;;;;;;;;5031635;28;20583;-66
2021/12/16 00:41:50;;;;;;;36.13;18.85;;;;;;;;;;5031387;28;20160;-66
2021/12/16 00:49:41;;;;;;;47.25;20.58;;;;;;;;;;5030973;28;20042;-66
2021/12/16 00:58:04;;;;;;;41.88;20.33;;;;;;;;;;5030190;28;20052;-66
2021/12/16 01:00:31;;;;;;;41.95;20.08;;;;;;;;;;5031266;28;20045;-66
2021/12/16 01:08:39;;;;;;;40.38;20.73;;;;;;;;;;5031401;28;20411;-66
2021/12/16 01:33:43;;;;;;;47.15;21.70;;;;;;;;;;5030406;28;20084;-66
2021/12/16 01:36:24;;;;;;;47.55;22.77;;;;;;;;;;5031522;28;20052;-66
2021/12/16 01:49:45;;;;;;;41.65;21.55;;;;;;;;;;5030727;28;20068;-66
2021/12/16 01:55:07;;;;;;;48.60;22.13;;;;;;;;;;5030426;28;20049;-66
2021/12/16 01:57:39;;;;;;;41.38;22.23;;;;;;;;;;5027506;28;20095;-65
2021/12/16 02:00:08;;;;;;;40.53;20.30;;;;;;;;;;5031887;28;20098;-66
2021/12/16 02:02:47;;;;;;;46.30;21.85;;;;;;;;;;5028376;28;20041;-66
2021/12/16 02:10:48;;;;;;;44.63;22.13;;;;;;;;;;5030283;28;20491;-66
2021/12/16 02:29:49;;;;;;;49.15;21.83;;;;;;;;;;5030264;28;20060;-66
2021/12/16 02:32:37;;;;;;;49.63;23.35;;;;;;;;;;5030431;28;20053;-66
2021/12/16 02:37:33;;;;;;;47.38;23.02;;;;;;;;;;5030800;28;20049;-66
2021/12/16 02:40:00;;;;;;;47.78;23.55;;;;;;;;;;5030136;28;20034;-66
2021/12/16 02:42:39;;;;;;;43.45;21.40;;;;;;;;;;5031311;28;20045;-66
2021/12/16 02:50:20;;;;;;;47.03;22.23;;;;;;;;;;5032333;28;20549;-66
2021/12/16 02:52:47;;;;;;;50.75;23.52;;;;;;;;;;5031368;28;20045;-66
2021/12/16 02:55:15;;;;;;;44.67;22.10;;;;;;;;;;5032369;28;20037;-66
2021/12/16 02:57:48;;;;;;;49.60;23.52;;;;;;;;;;5033471;28;20052;-66
2021/12/16 03:00:15;;;;;;;46.90;22.75;;;;;;;;;;5030155;28;20107;-66
2021/12/16 03:02:43;;;;;;;46.38;22.05;;;;;;;;;;5031530;28;20128;-66
2021/12/16 03:05:10;;;;;;;49.22;23.80;;;;;;;;;;5030555;28;20125;-66
2021/12/16 03:07:36;;;;;;;51.20;23.42;;;;;;;;;;5031694;28;20042;-65
2021/12/16 03:20:42;;;;;;;42.50;22.45;;;;;;;;;;5030504;28;20125;-66
2021/12/16 03:26:08;;;;;;;48.20;23.65;;;;;;;;;;5031651;28;20045;-66
2021/12/16 03:29:03;;;;;;;50.80;23.45;;;;;;;;;;5030730;28;20045;-66
2021/12/16 03:38:56;;;;;;;53.38;25.13;;;;;;;;;;5033694;28;20042;-66
2021/12/16 03:41:22;;;;;;;56.05;24.50;;;;;;;;;;5033093;28;20052;-66
2021/12/16 03:43:50;;;;;;;50.05;23.33;;;;;;;;;;5033064;28;20121;-66
2021/12/16 03:46:27;;;;;;;57.25;24.05;;;;;;;;;;5028200;28;20061;-66
2021/12/16 03:48:56;;;;;;;52.17;24.85;;;;;;;;;;5030829;28;20124;-66
2021/12/16 03:51:31;;;;;;;51.53;23.00;;;;;;;;;;5028980;28;20084;-66
2021/12/16 03:54:00;;;;;;;59.13;26.20;;;;;;;;;;5031579;28;20048;-66
2021/12/16 03:56:26;;;;;;;52.55;24.95;;;;;;;;;;5033645;28;20078;-66
2021/12/16 03:58:52;;;;;;;52.20;24.45;;;;;;;;;;5030723;28;20116;-66
2021/12/16 04:01:20;;;;;;;53.10;24.67;;;;;;;;;;5030166;28;20045;-66
2021/12/16 04:03:46;;;;;;;60.10;26.27;;;;;;;;;;5029172;28;20034;-66
2021/12/16 04:06:13;;;;;;;53.00;25.70;;;;;;;;;;5032317;28;20037;-66
2021/12/16 04:08:40;;;;;;;52.55;26.25;;;;;;;;;;5032749;28;20041;-66
2021/12/16 04:11:16;;;;;;;53.90;25.20;;;;;;;;;;5029611;28;20063;-66
2021/12/16 04:13:59;;;;;;;56.00;25.90;;;;;;;;;;5027324;28;20446;-66
2021/12/16 04:16:38;;;;;;;53.92;24.02;;;;;;;;;;5032710;28;20041;-66
2021/12/16 04:19:07;;;;;;;51.00;25.85;;;;;;;;;;5030834;28;20048;-66
2021/12/16 04:21:33;;;;;;;51.58;24.85;;;;;;;;;;5029576;28;20519;-66
2021/12/16 04:23:59;;;;;;;55.90;25.52;;;;;;;;;;5030756;28;20041;-66
2021/12/16 04:26:27;;;;;;;60.15;25.90;;;;;;;;;;5029137;28;20033;-66
2021/12/16 04:28:53;;;;;;;51.00;25.02;;;;;;;;;;5030661;28;20571;-66
2021/12/16 04:31:20;;;;;;;57.13;26.33;;;;;;;;;;5030728;28;20049;-66
2021/12/16 04:33:46;;;;;;;60.30;26.77;;;;;;;;;;5032113;28;20037;-66
2021/12/16 04:36:13;;;;;;;61.30;26.10;;;;;;;;;;5028558;28;20053;-66
2021/12/16 04:38:40;;;;;;;51.83;24.73;;;;;;;;;;5032536;28;20033;-66
2021/12/16 04:41:09;;;;;;;56.85;26.50;;;;;;;;;;5035371;28;20438;-66
2021/12/16 04:43:40;;;;;;;57.25;26.27;;;;;;;;;;5030808;28;20044;-66
2021/12/16 04:46:08;;;;;;;56.45;25.27;;;;;;;;;;5026476;28;20087;-66
2021/12/16 04:48:34;;;;;;;55.45;25.95;;;;;;;;;;5028288;28;20128;-66
2021/12/16 04:51:00;;;;;;;56.28;25.50;;;;;;;;;;5031156;28;20045;-66
2021/12/16 04:53:26;;;;;;;50.90;24.80;;;;;;;;;;5032313;28;20399;-66
2021/12/16 04:55:52;;;;;;;57.53;26.10;;;;;;;;;;5030300;28;20122;-66
2021/12/16 04:58:18;;;;;;;61.45;26.55;;;;;;;;;;5032023;28;20049;-66
2021/12/16 05:00:44;;;;;;;53.90;24.63;;;;;;;;;;5030410;28;20038;-66
2021/12/16 05:03:10;;;;;;;57.53;25.02;;;;;;;;;;5026694;28;20088;-66
2021/12/16 05:05:36;;;;;;;51.17;24.67;;;;;;;;;;5029542;28;20116;-66
2021/12/16 05:08:03;;;;;;;55.53;25.17;;;;;;;;;;5029398;28;20041;-66
2021/12/16 05:10:29;;;;;;;54.45;23.65;;;;;;;;;;5031103;28;20041;-66
2021/12/16 05:12:58;;;;;;;51.05;24.52;;;;;;;;;;5031368;28;20045;-66
2021/12/16 05:15:29;;;;;;;50.58;24.98;;;;;;;;;;5030601;28;20045;-66
2021/12/16 05:17:57;;;;;;;47.38;23.55;;;;;;;;;;5031626;28;20049;-66
2021/12/16 05:20:25;;;;;;;51.00;24.02;;;;;;;;;;5031245;28;20046;-66
2021/12/16 05:28:13;;;;;;;53.55;24.10;;;;;;;;;;5031304;28;20045;-66
2021/12/16 05:30:39;;;;;;;48.83;23.48;;;;;;;;;;5029645;28;20037;-66
2021/12/16 05:33:05;;;;;;;47.83;22.92;;;;;;;;;;5030438;28;20044;-66
2021/12/16 05:35:32;;;;;;;52.03;23.30;;;;;;;;;;5031088;28;20491;-66
2021/12/16 05:37:58;;;;;;;45.30;22.63;;;;;;;;;;5031685;28;20041;-66
2021/12/16 05:40:25;;;;;;;49.20;23.30;;;;;;;;;;5028918;28;20451;-66
2021/12/16 05:42:55;;;;;;;50.35;24.13;;;;;;;;;;5031308;28;20461;-66
2021/12/16 05:45:23;;;;;;;53.03;24.25;;;;;;;;;;5024652;28;20068;-67
2021/12/16 05:47:49;;;;;;;51.80;24.55;;;;;;;;;;5026125;28;20037;-66
2021/12/16 05:50:16;;;;;;;48.35;23.73;;;;;;;;;;5028345;28;20041;-66
2021/12/16 05:52:42;;;;;;;46.65;23.00;;;;;;;;;;5031458;28;20041;-66
2021/12/16 05:55:10;;;;;;;52.28;24.17;;;;;;;;;;5031395;28;20056;-66
2021/12/16 05:57:36;;;;;;;49.13;23.83;;;;;;;;;;5031038;28;20557;-66
2021/12/16 06:00:03;;;;;;;51.35;23.98;;;;;;;;;;5030366;28;20061;-66
2021/12/16 06:02:29;;;;;;;55.08;24.40;;;;;;;;;;5030533;28;20047;-66
2021/12/16 06:04:55;;;;;;;53.45;24.13;;;;;;;;;;5029578;28;20124;-67
2021/12/16 06:07:21;;;;;;;48.95;22.73;;;;;;;;;;5029906;28;20136;-66
2021/12/16 06:09:48;;;;;;;55.38;23.65;;;;;;;;;;5028668;28;20045;-66
2021/12/16 06:12:14;;;;;;;56.08;23.50;;;;;;;;;;5028863;28;20038;-66
2021/12/16 06:26:25;;;;;;;51.35;23.20;;;;;;;;;;5031580;28;20396;-66
2021/12/16 06:28:22;;;;;;;45.88;21.05;;;;;;;;;;5031050;28;20044;-66
2021/12/16 06:30:48;;;;;;;48.20;22.42;;;;;;;;;;5034596;28;20042;-66
2021/12/16 06:33:16;;;;;;;49.17;23.02;;;;;;;;;;5033592;28;20045;-66
2021/12/16 06:35:43;;;;;;;51.90;24.52;;;;;;;;;;5033758;28;20041;-66
2021/12/16 06:38:09;;;;;;;59.15;24.50;;;;;;;;;;5033215;28;20171;-66
2021/12/16 06:40:35;;;;;;;47.03;23.42;;;;;;;;;;5033886;28;20513;-66
2021/12/16 06:43:02;;;;;;;46.42;22.90;;;;;;;;;;5033232;28;20449;-66
2021/12/16 06:45:33;;;;;;;51.35;23.92;;;;;;;;;;5034413;28;20037;-66
2021/12/16 06:48:08;;;;;;;53.87;23.83;;;;;;;;;;5033477;28;20201;-66
2021/12/16 06:53:08;;;;;;;52.85;23.65;;;;;;;;;;5028270;28;20128;-66
2021/12/16 06:55:42;;;;;;;49.92;23.30;;;;;;;;;;5032804;28;20052;-66
2021/12/16 06:59:02;;;;;;;55.80;24.02;;;;;;;;;;5025976;28;20465;-66
2021/12/16 07:02:04;;;;;;;47.22;23.77;;;;;;;;;;5024832;28;20096;-66
2021/12/16 07:03:53;;;;;;;56.97;24.08;;;;;;;;;;5027072;28;20099;-66
2021/12/16 07:06:23;;;;;;;54.60;24.23;;;;;;;;;;5032798;28;20045;-66
2021/12/16 07:08:52;;;;;;;52.00;23.17;;;;;;;;;;5032283;28;20083;-66
2021/12/16 07:11:18;;;;;;;48.17;22.25;;;;;;;;;;5031335;28;20649;-66
2021/12/16 07:13:55;;;;;;;46.83;22.98;;;;;;;;;;5027659;28;20042;-66
2021/12/16 07:16:22;;;;;;;52.78;24.52;;;;;;;;;;5029614;28;20123;-66
2021/12/16 07:18:48;;;;;;;48.45;23.83;;;;;;;;;;5033171;28;20506;-66
2021/12/16 07:21:14;;;;;;;54.10;23.73;;;;;;;;;;5026313;28;20029;-66
2021/12/16 07:23:40;;;;;;;59.97;26.65;;;;;;;;;;5034676;28;20034;-66
2021/12/16 07:26:05;;;;;;;53.60;23.98;;;;;;;;;;5032699;28;20037;-66
2021/12/16 07:28:31;;;;;;;55.55;23.92;;;;;;;;;;5030060;28;20033;-66
2021/12/16 07:30:58;;;;;;;50.85;24.40;;;;;;;;;;5031791;28;20503;-66
2021/12/16 07:33:24;;;;;;;54.45;23.80;;;;;;;;;;5024796;28;20052;-66
2021/12/16 07:35:50;;;;;;;54.95;24.25;;;;;;;;;;5025725;28;20091;-66
2021/12/16 07:38:16;;;;;;;52.58;24.42;;;;;;;;;;5061058;22;20041;-73
2021/12/16 07:40:43;;;;;;;52.95;22.85;;;;;;;;;;5067521;28;20516;-72
2021/12/16 07:45:40;;;;;;;44.47;22.45;;;;;;;;;;5068029;28;20040;-73
2021/12/16 07:48:06;;;;;;;42.63;22.10;;;;;;;;;;5072855;28;20032;-73
2021/12/16 07:50:32;;;;;;;54.25;24.10;;;;;;;;;;5072602;28;20051;-72
2021/12/16 07:52:58;;;;;;;56.35;24.88;;;;;;;;;;5072934;28;20387;-73
2021/12/16 07:55:24;;;;;;;52.13;23.70;;;;;;;;;;5072552;28;20181;-72
2021/12/16 07:57:50;;;;;;;55.50;24.88;;;;;;;;;;5072080;28;20111;-73
2021/12/16 08:00:18;;;;;;;53.58;25.10;;;;;;;;;;5073002;28;20127;-73
2021/12/16 08:02:44;;;;;;;47.60;23.08;;;;;;;;;;5068421;28;20075;-73
2021/12/16 08:05:11;;;;;;;46.35;23.13;;;;;;;;;;5071123;28;20054;-73
2021/12/16 08:07:38;;;;;;;51.33;23.30;;;;;;;;;;5072584;28;20037;-72
2021/12/16 08:10:05;;;;;;;51.22;22.58;;;;;;;;;;5073165;28;20505;-72
2021/12/16 08:12:31;;;;;;;45.33;20.98;;;;;;;;;;5081261;28;20071;-71
2021/12/16 08:14:57;;;;;;;42.33;21.02;;;;;;;;;;5076139;28;20062;-73
2021/12/16 08:17:23;;;;;;;52.67;21.70;;;;;;;;;;5070093;28;20029;-73
2021/12/16 08:19:49;;;;;;;45.95;21.73;;;;;;;;;;5070711;28;20040;-73
2021/12/16 08:22:15;;;;;;;46.60;22.05;;;;;;;;;;5071876;28;20055;-73
2021/12/16 08:24:41;;;;;;;46.10;21.80;;;;;;;;;;5078558;28;20047;-73
2021/12/16 08:27:08;;;;;;;55.47;23.45;;;;;;;;;;5070168;28;20047;-73
2021/12/16 08:29:34;;;;;;;59.15;24.27;;;;;;;;;;5072156;28;20036;-73
2021/12/16 08:32:00;;;;;;;48.53;23.52;;;;;;;;;;5072371;28;20107;-72
2021/12/16 08:34:29;;;;;;;51.85;23.27;;;;;;;;;;5070912;28;20435;-73
2021/12/16 08:36:55;;;;;;;60.75;25.45;;;;;;;;;;5071577;28;20487;-72
2021/12/16 08:39:23;;;;;;;58.75;25.17;;;;;;;;;;5068890;28;20310;-73
2021/12/16 08:41:50;;;;;;;57.88;25.83;;;;;;;;;;5069267;28;20044;-72
2021/12/16 08:44:16;;;;;;;66.32;26.55;;;;;;;;;;5072092;28;20078;-73
2021/12/16 08:46:45;;;;;;;70.65;27.60;;;;;;;;;;5082350;28;20040;-73
2021/12/16 08:49:11;;;;;;;76.13;28.67;;;;;;;;;;5076528;28;20036;-72
2021/12/16 08:51:39;;;;;;;72.47;27.77;;;;;;;;;;5085717;28;20036;-72
2021/12/16 08:54:05;;;;;;;78.88;28.15;;;;;;;;;;5071872;28;20405;-71
2021/12/16 08:56:31;;;;;;;81.22;28.48;;;;;;;;;;5082713;28;20043;-73
2021/12/16 08:58:58;;;;;;;68.65;27.58;;;;;;;;;;5081278;28;20086;-73
2021/12/16 09:01:26;;;;;;;62.60;26.33;;;;;;;;;;5073586;28;20036;-74
2021/12/16 09:03:53;;;;;;;79.90;27.20;;;;;;;;;;5064531;28;20047;-73
2021/12/16 09:06:19;;;;;;;76.28;27.63;;;;;;;;;;5068501;28;20518;-73
2021/12/16 09:08:45;;;;;;;76.18;27.75;;;;;;;;;;5071089;28;20032;-73
2021/12/16 09:11:14;;;;;;;78.20;27.17;;;;;;;;;;5069944;28;20394;-73
2021/12/16 09:13:42;;;;;;;78.95;27.60;;;;;;;;;;5066263;28;20123;-72
2021/12/16 09:16:10;;;;;;;83.68;29.83;;;;;;;;;;5066078;28;20032;-73
2021/12/16 09:18:41;;;;;;;84.53;28.15;;;;;;;;;;5064085;28;20532;-73
2021/12/16 09:21:07;;;;;;;;;;;;;;;;;;5065030;28;20048;-73
2021/12/16 09:23:33;;;;;;;71.43;26.88;;;;;;;;;;5071172;28;19916;-73
2021/12/16 09:25:59;;;;;;;76.43;26.35;;;;;;;;;;5067635;28;20061;-73
2021/12/16 09:28:27;;;;;;;69.32;26.58;;;;;;;;;;5068432;28;20042;-73
2021/12/16 09:30:54;;;;;;;74.63;26.98;;;;;;;;;;5075555;28;20059;-72
2021/12/16 09:33:22;;;;;;;76.38;26.70;;;;;;;;;;5078734;28;20044;-72
2021/12/16 09:35:54;;;;;;;74.75;25.38;;;;;;;;;;5073948;28;20049;-73
2021/12/16 09:38:19;;;;;;;;;;;;;;;;;;5073028;28;20048;-73
2021/12/16 09:40:50;;;;;;;66.07;23.77;;;;;;;;;;5071285;28;19927;-73
2021/12/16 09:43:16;;;;;;;63.87;24.40;;;;;;;;;;5070195;28;20033;-73
2021/12/16 09:45:42;;;;;;;59.33;23.85;;;;;;;;;;5087968;28;20032;-72
2021/12/16 09:48:08;;;;;;;66.18;24.20;;;;;;;;;;5087969;28;20444;-72
2021/12/16 09:50:34;;;;;;;71.80;27.05;;;;;;;;;;5079341;28;20094;-73
2021/12/16 09:53:01;;;;;;;60.45;25.52;;;;;;;;;;5075248;28;20085;-72
2021/12/16 09:55:33;;;;;;;67.03;25.73;;;;;;;;;;5072523;28;20036;-73
2021/12/16 09:58:00;;;;;;;78.90;26.23;;;;;;;;;;5075170;28;20099;-73
2021/12/16 10:00:28;;;;;;;65.95;24.83;;;;;;;;;;5076785;28;20479;-73
2021/12/16 10:02:55;;;;;;;74.65;25.13;;;;;;;;;;5069952;28;20049;-73
2021/12/16 10:05:22;;;;;;;80.22;26.90;;;;;;;;;;5064071;28;20052;-73
2021/12/16 10:07:49;;;;;;;66.18;23.83;;;;;;;;;;5075901;28;20036;-73
2021/12/16 10:10:18;;;;;;;62.38;23.77;;;;;;;;;;5070768;28;20540;-73
2021/12/16 10:12:47;;;;;;;62.65;24.38;;;;;;;;;;5070562;28;20044;-72
2021/12/16 10:17:57;;;;;;;60.88;25.35;;;;;;;;;;5069148;28;20496;-73
2021/12/16 10:20:27;;;;;;;61.38;23.27;;;;;;;;;;5071861;28;20045;-73
2021/12/16 10:23:01;;;;;;;59.90;22.95;;;;;;;;;;5074047;28;20033;-72
2021/12/16 10:25:30;;;;;;;62.30;22.95;;;;;;;;;;5073946;28;20037;-72
2021/12/16 10:27:58;;;;;;;55.00;22.15;;;;;;;;;;5068119;28;20068;-73
2021/12/16 10:30:25;;;;;;;54.55;21.73;;;;;;;;;;5071064;28;20037;-72
2021/12/16 10:32:53;;;;;;;53.88;22.90;;;;;;;;;;5066184;28;20573;-72
2021/12/16 10:35:30;;;;;;;57.65;21.98;;;;;;;;;;5073510;28;20052;-72
2021/12/16 10:37:59;;;;;;;53.80;23.13;;;;;;;;;;5066930;28;20097;-72
2021/12/16 10:40:37;;;;;;;59.08;22.00;;;;;;;;;;5070672;28;20072;-72
2021/12/16 10:43:09;;;;;;;53.72;21.90;;;;;;;;;;5071030;28;20089;-72
2021/12/16 10:45:35;;;;;;;56.78;22.85;;;;;;;;;;5071264;28;20041;-73
2021/12/16 10:48:20;;;;;;;60.92;23.42;;;;;;;;;;5072301;28;20039;-72
2021/12/16 10:51:01;;;;;;;58.42;23.02;;;;;;;;;;5074419;28;20051;-72
2021/12/16 10:53:43;;;;;;;55.42;22.73;;;;;;;;;;5078509;28;20044;-72
2021/12/16 10:56:09;;;;;;;56.50;21.98;;;;;;;;;;5076279;28;20444;-73
2021/12/16 10:58:47;;;;;;;56.72;23.00;;;;;;;;;;5070202;28;20033;-72
2021/12/16 11:01:31;;;;;;;53.92;23.15;;;;;;;;;;5067642;28;20048;-72
2021/12/16 11:03:58;;;;;;;58.45;23.25;;;;;;;;;;5071869;28;20102;-72
2021/12/16 11:06:28;;;;;;;54.65;23.02;;;;;;;;;;5073484;28;20501;-72
2021/12/16 11:08:54;;;;;;;56.42;22.63;;;;;;;;;;5070522;28;20036;-72
2021/12/16 11:11:30;;;;;;;55.30;23.10;;;;;;;;;;5072682;28;20086;-72
2021/12/16 11:14:04;;;;;;;58.53;22.50;;;;;;;;;;5077502;28;20036;-72
2021/12/16 11:16:32;;;;;;;56.45;22.90;;;;;;;;;;5073706;28;20041;-72
2021/12/16 11:18:58;;;;;;;56.65;22.52;;;;;;;;;;5073802;28;20035;-72
2021/12/16 11:21:31;;;;;;;54.58;22.27;;;;;;;;;;5069389;28;20036;-72
2021/12/16 11:23:57;;;;;;;61.08;22.77;;;;;;;;;;5071033;28;20082;-72
2021/12/16 11:26:29;;;;;;;57.47;23.50;;;;;;;;;;5074923;28;20503;-72
2021/12/16 11:28:55;;;;;;;58.03;21.95;;;;;;;;;;5077792;28;20059;-72
2021/12/16 11:31:30;;;;;;;59.20;23.65;;;;;;;;;;5073883;28;20067;-72
2021/12/16 11:33:57;;;;;;;59.33;22.52;;;;;;;;;;5073772;28;20469;-72
2021/12/16 11:36:25;;;;;;;54.50;21.30;;;;;;;;;;5073567;28;20044;-73
2021/12/16 11:38:54;;;;;;;51.03;21.48;;;;;;;;;;5086623;28;20146;-72
2021/12/16 11:41:22;;;;;;;46.08;21.10;;;;;;;;;;5082229;28;20398;-73
2021/12/16 11:44:00;;;;;;;51.85;21.45;;;;;;;;;;5073477;28;20056;-72
2021/12/16 11:46:38;;;;;;;49.85;20.67;;;;;;;;;;5072054;28;20037;-72
2021/12/16 11:49:10;;;;;;;59.65;20.25;;;;;;;;;;5071990;28;20028;-72
2021/12/16 11:51:38;;;;;;;55.20;21.27;;;;;;;;;;5067636;28;20036;-72
2021/12/16 11:54:12;;;;;;;63.67;21.55;;;;;;;;;;5073287;28;20043;-72
2021/12/16 11:56:47;;;;;;;59.38;20.88;;;;;;;;;;5072060;28;20072;-73
2021/12/16 11:59:20;;;;;;;56.28;20.65;;;;;;;;;;5075814;28;20044;-73
2021/12/16 12:01:48;;;;;;;60.55;20.17;;;;;;;;;;5071890;28;20032;-73
2021/12/16 12:04:14;;;;;;;54.78;20.10;;;;;;;;;;5074625;28;20042;-72
2021/12/16 12:06:44;;;;;;;59.38;20.50;;;;;;;;;;5077880;28;20032;-72
2021/12/16 12:09:09;;;;;;;65.50;21.02;;;;;;;;;;5075986;28;20028;-72
2021/12/16 12:11:40;;;;;;;60.83;21.27;;;;;;;;;;5076729;28;20569;-73
2021/12/16 12:14:11;;;;;;;57.75;21.10;;;;;;;;;;5061602;28;20125;-73
2021/12/16 12:16:42;;;;;;;53.25;20.63;;;;;;;;;;5073077;28;20494;-72
2021/12/16 12:19:10;;;;;;;51.45;20.92;;;;;;;;;;5073548;28;20047;-72
2021/12/16 12:21:38;;;;;;;53.55;20.60;;;;;;;;;;5087338;28;20059;-73
2021/12/16 12:24:21;;;;;;;52.08;21.10;;;;;;;;;;5092889;28;20032;-72
2021/12/16 12:26:50;;;;;;;58.05;21.80;;;;;;;;;;5092296;28;20067;-73
2021/12/16 12:29:18;;;;;;;52.70;20.35;;;;;;;;;;5075900;28;20033;-73
2021/12/16 12:31:47;;;;;;;56.10;19.48;;;;;;;;;;5072614;28;20037;-73
2021/12/16 12:34:14;;;;;;;52.25;19.40;;;;;;;;;;5073480;28;20041;-72
2021/12/16 12:36:40;;;;;;;51.17;18.88;;;;;;;;;;5072744;28;20040;-73
2021/12/16 12:39:08;;;;;;;49.55;19.23;;;;;;;;;;5080746;28;20449;-73
2021/12/16 12:41:34;;;;;;;47.08;18.20;;;;;;;;;;5072226;28;20482;-73
2021/12/16 12:44:04;;;;;;;50.67;18.15;;;;;;;;;;5080585;28;20772;-73
2021/12/16 12:46:31;;;;;;;48.72;17.85;;;;;;;;;;5072929;28;20033;-73
2021/12/16 12:49:00;;;;;;;47.95;16.77;;;;;;;;;;5074318;28;20040;-73
2021/12/16 12:51:38;;;;;;;48.80;17.00;;;;;;;;;;5078800;28;20047;-73
2021/12/16 12:54:23;;;;;;;55.67;18.98;;;;;;;;;;5075133;28;20044;-73
2021/12/16 12:56:51;;;;;;;49.55;19.50;;;;;;;;;;5078378;28;20040;-71
2021/12/16 12:59:18;;;;;;;65.47;20.95;;;;;;;;;;5074533;28;20139;-70
2021/12/16 13:01:51;;;;;;;53.95;19.63;;;;;;;;;;5090896;28;20129;-71
2021/12/16 13:04:24;;;;;;;44.05;18.88;;;;;;;;;;5083300;28;20033;-70
2021/12/16 13:07:05;;;;;;;55.30;18.90;;;;;;;;;;5070803;28;20415;-70
2021/12/16 13:09:33;;;;;;;51.57;18.07;;;;;;;;;;5084696;28;20036;-70
2021/12/16 13:12:01;;;;;;;54.00;17.48;;;;;;;;;;5085701;28;20294;-70
2021/12/16 13:14:45;;;;;;;55.95;18.85;;;;;;;;;;5088728;28;20193;-70
2021/12/16 13:28:00;;;;;;;68.63;20.98;;;;;;;;;;5074899;28;20036;-71
2021/12/16 13:30:32;;;;;;;65.47;21.13;;;;;;;;;;5069412;28;20133;-70
2021/12/16 13:33:14;;;;;;;67.43;20.23;;;;;;;;;;5069407;28;20060;-70
2021/12/16 13:35:47;;;;;;;62.40;19.88;;;;;;;;;;5069750;28;20054;-70
2021/12/16 13:38:14;;;;;;;68.38;21.15;;;;;;;;;;5071477;22;20475;-67
2021/12/16 13:40:41;;;;;;;63.22;20.02;;;;;;;;;;5043295;28;20467;-67
2021/12/16 13:43:17;;;;;;;63.05;18.60;;;;;;;;;;5045432;28;20033;-67
2021/12/16 13:46:02;;;;;;;60.80;19.98;;;;;;;;;;5045746;28;20041;-67
2021/12/16 13:48:59;;;;;;;60.20;20.23;;;;;;;;;;5036856;28;20065;-67
2021/12/16 14:01:07;;;;;;;52.75;18.90;;;;;;;;;;5046561;28;20592;-67
2021/12/16 14:06:17;;;;;;;55.08;20.33;;;;;;;;;;5050846;28;20538;-67
2021/12/16 14:08:40;;;;;;;61.08;20.25;;;;;;;;;;5047783;28;20037;-67
2021/12/16 14:12:03;;;;;;;55.05;19.75;;;;;;;;;;5050595;28;20052;-67
2021/12/16 14:14:51;;;;;;;55.97;19.77;;;;;;;;;;5049102;28;20098;-67
2021/12/16 14:17:44;;;;;;;55.88;20.67;;;;;;;;;;5050818;28;20119;-67
2021/12/16 14:23:27;;;;;;;49.47;19.08;;;;;;;;;;5049206;28;20048;-67
2021/12/16 14:37:12;;;;;;;54.40;18.23;;;;;;;;;;5045059;28;20047;-67
2021/12/16 14:47:30;;;;;;;60.15;20.25;;;;;;;;;;5051690;28;20048;-67
2021/12/16 14:49:56;;;;;;;63.28;19.77;;;;;;;;;;5045849;28;20044;-67
2021/12/16 14:52:27;;;;;;;80.40;21.67;;;;;;;;;;5053741;28;20037;-67
2021/12/16 14:54:58;;;;;;;70.65;22.25;;;;;;;;;;5053273;28;20077;-67
2021/12/16 14:57:26;;;;;;;68.65;20.10;;;;;;;;;;5048281;28;20111;-66
2021/12/16 14:59:53;;;;;;;101.18;39.03;;;;;;;;;;5052750;28;20068;-68
2021/12/16 15:02:21;;;;;;;74.57;27.85;;;;;;;;;;5053031;28;20037;-70
2021/12/16 15:04:47;;;;;;;61.90;20.02;;;;;;;;;;5052970;28;20041;-69
2021/12/16 15:07:14;;;;;;;61.30;19.27;;;;;;;;;;5046958;28;20048;-69
2021/12/16 15:09:41;;;;;;;62.75;21.63;;;;;;;;;;5049445;28;20037;-69
2021/12/16 15:12:41;;;;;;;72.32;20.95;;;;;;;;;;5053395;28;20041;-69
2021/12/16 15:44:53;;;;;;;76.65;28.00;;;;;;;;;;5051021;28;20083;-68
2021/12/16 15:47:19;;;;;;;67.60;32.00;;;;;;;;;;5053122;28;20071;-68
2021/12/16 15:49:46;;;;;;;73.93;29.42;;;;;;;;;;5053030;28;20094;-68
2021/12/16 15:52:12;;;;;;;95.40;56.33;;;;;;;;;;5051424;28;20072;-69
2021/12/16 15:54:39;;;;;;;78.28;32.97;;;;;;;;;;5053322;28;20477;-68
2021/12/16 15:57:05;;;;;;;81.95;21.83;;;;;;;;;;5052551;28;20090;-69
2021/12/16 15:59:33;;;;;;;71.65;28.45;;;;;;;;;;5052507;28;20634;-69
2021/12/16 16:01:59;;;;;;;74.85;24.75;;;;;;;;;;5051507;28;20326;-69
2021/12/16 16:04:27;;;;;;;74.43;20.63;;;;;;;;;;5044308;28;20037;-69
2021/12/16 16:06:57;;;;;;;91.80;39.95;;;;;;;;;;5051146;28;20085;-69
2021/12/16 16:09:24;;;;;;;63.60;18.40;;;;;;;;;;5051145;28;20063;-69
2021/12/16 16:11:52;;;;;;;81.80;19.02;;;;;;;;;;5052164;28;20032;-69
2021/12/16 16:14:19;;;;;;;51.72;19.40;;;;;;;;;;5052696;28;20502;-70
2021/12/16 16:16:49;;;;;;;85.57;41.80;;;;;;;;;;5053125;28;20044;-70
2021/12/16 16:19:17;;;;;;;61.30;20.63;;;;;;;;;;5052386;28;20045;-70
2021/12/16 16:21:45;;;;;;;87.25;36.63;;;;;;;;;;5051856;28;20486;-69
2021/12/16 16:24:18;;;;;;;72.45;18.50;;;;;;;;;;5039486;28;20502;-69
2021/12/16 16:26:45;;;;;;;57.75;16.60;;;;;;;;;;5053071;28;20052;-70
2021/12/16 16:29:14;;;;;;;45.00;15.88;;;;;;;;;;5052261;28;20045;-70
2021/12/16 16:31:41;;;;;;;47.35;15.38;;;;;;;;;;5051643;28;20045;-70
2021/12/16 16:34:11;;;;;;;36.85;14.38;;;;;;;;;;5051013;28;20091;-70
2021/12/16 16:36:41;;;;;;;35.22;15.30;;;;;;;;;;5049817;28;20037;-70
2021/12/16 16:39:10;;;;;;;40.88;14.38;;;;;;;;;;5052011;28;20043;-70
2021/12/16 16:41:57;;;;;;;35.70;14.20;;;;;;;;;;5047301;28;20043;-70
2021/12/16 16:44:23;;;;;;;44.65;15.00;;;;;;;;;;5044060;28;20040;-70
2021/12/16 16:47:12;;;;;;;36.60;15.18;;;;;;;;;;5046878;28;20056;-70
2021/12/16 16:49:47;;;;;;;37.53;14.88;;;;;;;;;;5050947;28;20037;-69
2021/12/16 16:52:16;;;;;;;32.55;13.75;;;;;;;;;;5052248;28;20037;-70
2021/12/16 16:54:45;;;;;;;34.53;13.15;;;;;;;;;;5053585;28;20487;-69
2021/12/16 16:57:13;;;;;;;31.23;12.30;;;;;;;;;;5051433;28;20033;-69
2021/12/16 16:59:39;;;;;;;36.03;14.68;;;;;;;;;;5051400;28;20045;-70
2021/12/16 17:02:14;;;;;;;33.25;13.82;;;;;;;;;;5050675;28;20287;-69
2021/12/16 17:04:40;;;;;;;41.78;14.50;;;;;;;;;;5050052;28;20040;-69
2021/12/16 17:07:07;;;;;;;38.22;15.68;;;;;;;;;;5051533;28;20498;-69
2021/12/16 17:09:37;;;;;;;35.72;15.18;;;;;;;;;;5049962;28;20072;-69
2021/12/16 17:12:06;;;;;;;47.75;19.15;;;;;;;;;;5052101;28;20045;-69
2021/12/16 17:14:39;;;;;;;46.05;17.50;;;;;;;;;;5050795;28;20445;-69
2021/12/16 17:17:20;;;;;;;48.92;16.80;;;;;;;;;;5051833;28;20041;-69
2021/12/16 17:19:48;;;;;;;41.03;15.35;;;;;;;;;;5048435;28;20041;-69
2021/12/16 17:22:16;;;;;;;40.92;16.00;;;;;;;;;;5050012;28;20538;-69
2021/12/16 17:24:44;;;;;;;36.45;15.40;;;;;;;;;;5051136;28;20048;-69
2021/12/16 17:27:10;;;;;;;60.95;16.73;;;;;;;;;;5050918;28;20040;-70
2021/12/16 17:29:45;;;;;;;41.72;15.75;;;;;;;;;;5051598;28;20112;-69
2021/12/16 17:32:13;;;;;;;40.53;16.15;;;;;;;;;;5051405;28;20033;-69
2021/12/16 17:34:45;;;;;;;41.58;15.30;;;;;;;;;;5050591;28;20597;-69
2021/12/16 17:37:17;;;;;;;41.58;15.25;;;;;;;;;;5051266;28;20132;-69
2021/12/16 17:39:58;;;;;;;40.95;16.42;;;;;;;;;;5049843;28;20128;-69
2021/12/16 17:42:41;;;;;;;48.20;17.63;;;;;;;;;;5050131;28;20044;-69
2021/12/16 17:45:33;;;;;;;58.22;17.58;;;;;;;;;;5042840;28;20633;-69
2021/12/16 17:48:01;;;;;;;47.30;17.80;;;;;;;;;;5049194;28;20053;-69
2021/12/16 17:50:47;;;;;;;61.08;18.83;;;;;;;;;;5051037;28;20080;-69
2021/12/16 17:53:14;;;;;;;45.95;14.82;;;;;;;;;;5050132;28;20406;-70
2021/12/16 17:55:42;;;;;;;43.00;15.68;;;;;;;;;;5049468;28;20049;-69
2021/12/16 17:58:11;;;;;;;41.53;16.20;;;;;;;;;;5050417;28;20067;-69
2021/12/16 18:00:41;;;;;;;40.00;15.63;;;;;;;;;;5051252;28;20037;-70
2021/12/16 18:03:07;;;;;;;44.53;16.55;;;;;;;;;;5050069;28;20491;-70
2021/12/16 18:05:42;;;;;;;58.50;17.33;;;;;;;;;;5050075;28;20380;-69
2021/12/16 18:08:09;;;;;;;62.65;16.67;;;;;;;;;;5050313;28;20041;-69
2021/12/16 18:10:36;;;;;;;43.13;15.25;;;;;;;;;;5049913;28;20036;-69
2021/12/16 18:13:02;;;;;;;52.97;17.17;;;;;;;;;;5045780;28;20045;-71
2021/12/16 18:15:29;;;;;;;54.95;16.73;;;;;;;;;;5054469;28;20086;-69
2021/12/16 18:17:57;;;;;;;51.58;17.23;;;;;;;;;;5052892;28;20484;-69
2021/12/16 18:20:26;;;;;;;54.38;18.10;;;;;;;;;;5054299;28;20045;-70